VYMPEL FOOL-FOOL
Flight info
| Callsign | VYMPEL |
|---|---|
| Flight time | N/A |
| Altitude | 3000 |
| Route | DCT |
| Aircraft | L29/M-VGD/A |
Departure
| Time | 2026-04-15 20:16 |
|---|---|
| Airport | Libreville Leon M'ba International Airport (FOOL) |
Arrival
| Time | N/A |
|---|---|
| Airport | Libreville Leon M'ba International Airport (FOOL) |
| Time | Latitude | Longitude | Altitude | Speed | Heading |
|---|---|---|---|---|---|
| 2026-04-15 20:10 | 0.46370 | 9.40781 | 41 ft | 0 kts | 23° |
| 2026-04-15 20:11 | 0.46383 | 9.40788 | 41 ft | 9 kts | 26° |
| 2026-04-15 20:11 | 0.46426 | 9.40826 | 40 ft | 4 kts | 54° |
| 2026-04-15 20:11 | 0.46437 | 9.40841 | 40 ft | 0 kts | 64° |
| 2026-04-15 20:11 | 0.46437 | 9.40842 | 40 ft | 0 kts | 67° |
| 2026-04-15 20:12 | 0.46440 | 9.40850 | 40 ft | 2 kts | 67° |
| 2026-04-15 20:12 | 0.46452 | 9.40877 | 40 ft | 5 kts | 65° |
| 2026-04-15 20:12 | 0.46462 | 9.40913 | 40 ft | 4 kts | 98° |
| 2026-04-15 20:12 | 0.46451 | 9.40932 | 40 ft | 0 kts | 160° |
| 2026-04-15 20:13 | 0.46446 | 9.40934 | 40 ft | 0 kts | 155° |
| 2026-04-15 20:13 | 0.46440 | 9.40937 | 40 ft | 1 kts | 148° |
| 2026-04-15 20:13 | 0.46434 | 9.40941 | 40 ft | 0 kts | 152° |
| 2026-04-15 20:13 | 0.46424 | 9.40945 | 40 ft | 0 kts | 167° |
| 2026-04-15 20:15 | 0.46423 | 9.40946 | 40 ft | 0 kts | 158° |
| 2026-04-15 20:15 | 0.46407 | 9.40954 | 40 ft | 12 kts | 153° |
| 2026-04-15 20:16 | 0.46105 | 9.41102 | 39 ft | 88 kts | 153° |
| 2026-04-15 20:16 | 0.45325 | 9.41488 | 116 ft | 156 kts | 158° |
| 2026-04-15 20:16 | 0.44129 | 9.41877 | 540 ft | 199 kts | 175° |
| 2026-04-15 20:16 | 0.42947 | 9.41436 | 1326 ft | 214 kts | 216° |
| 2026-04-15 20:17 | 0.42680 | 9.41242 | 1395 ft | 221 kts | 216° |
| 2026-04-15 20:17 | 0.42127 | 9.40826 | 1333 ft | 243 kts | 219° |
| 2026-04-15 20:17 | 0.40724 | 9.39644 | 1533 ft | 272 kts | 220° |
| 2026-04-15 20:18 | 0.39215 | 9.38342 | 1839 ft | 290 kts | 221° |
| 2026-04-15 20:18 | 0.37671 | 9.37065 | 2408 ft | 294 kts | 214° |
| 2026-04-15 20:18 | 0.35922 | 9.35852 | 2258 ft | 313 kts | 216° |
| 2026-04-15 20:18 | 0.34133 | 9.34580 | 2541 ft | 320 kts | 214° |
| 2026-04-15 20:19 | 0.32252 | 9.33273 | 2863 ft | 324 kts | 215° |
| 2026-04-15 20:19 | 0.30437 | 9.31955 | 3288 ft | 322 kts | 217° |
| 2026-04-15 20:19 | 0.28677 | 9.30634 | 3859 ft | 318 kts | 217° |
| 2026-04-15 20:19 | 0.26892 | 9.29280 | 4231 ft | 320 kts | 217° |
| 2026-04-15 20:20 | 0.25066 | 9.27951 | 4258 ft | 332 kts | 216° |
| 2026-04-15 20:20 | 0.23158 | 9.26623 | 4321 ft | 338 kts | 214° |
| 2026-04-15 20:20 | 0.21253 | 9.25294 | 4610 ft | 337 kts | 215° |
| 2026-04-15 20:20 | 0.19282 | 9.23911 | 4458 ft | 347 kts | 214° |
| 2026-04-15 20:21 | 0.17293 | 9.22562 | 4422 ft | 352 kts | 213° |
| 2026-04-15 20:21 | 0.15171 | 9.21162 | 4244 ft | 358 kts | 214° |
| 2026-04-15 20:21 | 0.14905 | 9.20980 | 4199 ft | 360 kts | 215° |
| 2026-04-15 20:21 | 0.14647 | 9.20800 | 4189 ft | 359 kts | 215° |
| 2026-04-15 20:22 | 0.12556 | 9.19385 | 4124 ft | 358 kts | 206° |
| 2026-04-15 20:22 | 0.10165 | 9.18594 | 3559 ft | 372 kts | 199° |
| 2026-04-15 20:22 | 0.07591 | 9.18163 | 3486 ft | 365 kts | 185° |
| 2026-04-15 20:22 | 0.05101 | 9.18212 | 3668 ft | 358 kts | 173° |
| 2026-04-15 20:23 | 0.02673 | 9.18925 | 3632 ft | 357 kts | 155° |
| 2026-04-15 20:23 | 0.01473 | 9.20725 | 2419 ft | 378 kts | 85° |
| 2026-04-15 20:23 | 0.00804 | 9.23241 | 1704 ft | 385 kts | 114° |
| 2026-04-15 20:23 | -0.00978 | 9.24859 | 1411 ft | 371 kts | 192° |
| 2026-04-15 20:24 | -0.03233 | 9.23683 | 1819 ft | 353 kts | 212° |
| 2026-04-15 20:24 | -0.07141 | 9.21166 | 3207 ft | 327 kts | 213° |
| 2026-04-15 20:24 | -0.09077 | 9.20123 | 4010 ft | 304 kts | 163° |
| 2026-04-15 20:25 | -0.09422 | 9.21951 | 4128 ft | 306 kts | 60° |
| 2026-04-15 20:25 | -0.07714 | 9.22797 | 4015 ft | 314 kts | 339° |
| 2026-04-15 20:25 | -0.05813 | 9.22967 | 1618 ft | 325 kts | 11° |
| 2026-04-15 20:25 | -0.05378 | 9.23053 | -3 ft | 1 kts | 40° |
| 2026-04-15 20:26 | -0.05363 | 9.23049 | -3 ft | 3 kts | 359° |
| 2026-04-15 20:26 | -0.05343 | 9.23042 | -3 ft | 4 kts | 337° |
| 2026-04-15 20:28 | 0.57506 | 12.88422 | 1735 ft | 0 kts | 58° |
| 2026-04-15 20:29 | 0.57551 | 12.88503 | 1733 ft | 0 kts | 58° |
| 2026-04-15 20:29 | 0.57551 | 12.88504 | 1733 ft | 0 kts | 59° |
| 2026-04-15 20:29 | 0.57552 | 12.88505 | 1733 ft | 0 kts | 59° |
| 2026-04-15 20:30 | 0.57607 | 12.88602 | 1729 ft | 44 kts | 57° |
| 2026-04-15 20:30 | 0.57882 | 12.89045 | 1702 ft | 107 kts | 57° |
| 2026-04-15 20:31 | 0.58361 | 12.89812 | 1815 ft | 146 kts | 60° |
| 2026-04-15 20:31 | 0.58709 | 12.90741 | 2553 ft | 130 kts | 99° |
| 2026-04-15 20:31 | 0.58154 | 12.91257 | 2678 ft | 136 kts | 175° |
| 2026-04-15 20:31 | 0.57086 | 12.90910 | 2653 ft | 167 kts | 204° |
| 2026-04-15 20:32 | 0.56047 | 12.90427 | 3115 ft | 170 kts | 206° |
| 2026-04-15 20:32 | 0.54890 | 12.89839 | 3425 ft | 207 kts | 207° |
| 2026-04-15 20:32 | 0.53517 | 12.89138 | 3881 ft | 232 kts | 206° |
| 2026-04-15 20:32 | 0.52050 | 12.88410 | 4578 ft | 241 kts | 206° |
| 2026-04-15 20:33 | 0.50547 | 12.87633 | 5398 ft | 243 kts | 206° |
| 2026-04-15 20:33 | 0.49045 | 12.86976 | 6191 ft | 245 kts | 204° |
| 2026-04-15 20:33 | 0.47676 | 12.86393 | 7452 ft | 196 kts | 204° |
| 2026-04-15 20:33 | 0.46506 | 12.85881 | 7671 ft | 184 kts | 203° |
| 2026-04-15 20:34 | 0.45228 | 12.85333 | 7756 ft | 206 kts | 203° |
| 2026-04-15 20:34 | 0.43891 | 12.84801 | 8063 ft | 210 kts | 201° |
| 2026-04-15 20:34 | 0.42214 | 12.84050 | 8108 ft | 228 kts | 205° |
| 2026-04-15 20:34 | 0.40775 | 12.83379 | 8449 ft | 227 kts | 206° |
| 2026-04-15 20:35 | 0.39310 | 12.82667 | 8612 ft | 243 kts | 206° |
| 2026-04-15 20:35 | 0.37779 | 12.81858 | 9043 ft | 257 kts | 208° |
| 2026-04-15 20:35 | 0.36187 | 12.81021 | 9656 ft | 261 kts | 207° |
| 2026-04-15 20:35 | 0.34513 | 12.80259 | 10263 ft | 264 kts | 202° |
| 2026-04-15 20:36 | 0.32796 | 12.79524 | 10708 ft | 273 kts | 203° |
| 2026-04-15 20:36 | 0.31047 | 12.78778 | 11214 ft | 278 kts | 203° |
| 2026-04-15 20:36 | 0.29241 | 12.77932 | 11436 ft | 292 kts | 202° |
| 2026-04-15 20:37 | 0.25363 | 12.76621 | 12613 ft | 286 kts | 199° |
| 2026-04-15 20:37 | 0.23498 | 12.75923 | 13248 ft | 282 kts | 200° |
| 2026-04-15 20:37 | 0.21633 | 12.75244 | 13518 ft | 292 kts | 200° |
| 2026-04-15 20:37 | 0.19720 | 12.74494 | 13670 ft | 304 kts | 201° |
| 2026-04-15 20:38 | 0.17700 | 12.73620 | 13651 ft | 318 kts | 206° |
| 2026-04-15 20:38 | 0.16041 | 12.72284 | 13534 ft | 318 kts | 277° |
| 2026-04-15 20:38 | 0.17531 | 12.70901 | 13507 ft | 299 kts | 307° |
| 2026-04-15 20:38 | 0.18626 | 12.69263 | 13627 ft | 272 kts | 296° |
| 2026-04-15 20:39 | 0.19223 | 12.67473 | 13757 ft | 280 kts | 283° |
| 2026-04-15 20:39 | 0.19566 | 12.65482 | 13876 ft | 294 kts | 277° |
| 2026-04-15 20:39 | 0.19688 | 12.63422 | 14227 ft | 298 kts | 270° |
| 2026-04-15 20:39 | 0.19626 | 12.61322 | 14618 ft | 300 kts | 268° |
| 2026-04-15 20:40 | 0.19456 | 12.59218 | 14733 ft | 309 kts | 266° |
| 2026-04-15 20:40 | 0.19299 | 12.57066 | 14992 ft | 313 kts | 265° |
| 2026-04-15 20:40 | 0.19089 | 12.54833 | 14823 ft | 328 kts | 264° |
| 2026-04-15 20:40 | 0.18474 | 12.52704 | 15305 ft | 316 kts | 237° |
| 2026-04-15 20:41 | 0.15167 | 12.45162 | 15799 ft | 310 kts | 241° |
| 2026-04-15 20:41 | 0.14250 | 12.43169 | 15993 ft | 315 kts | 248° |
| 2026-04-15 20:41 | 0.13738 | 12.41104 | 16627 ft | 303 kts | 264° |
| 2026-04-15 20:41 | 0.13601 | 12.38917 | 15965 ft | 337 kts | 273° |
| 2026-04-15 20:42 | 0.14031 | 12.36912 | 14665 ft | 376 kts | 291° |
| 2026-04-15 20:42 | 0.15017 | 12.34405 | 13016 ft | 400 kts | 290° |
| 2026-04-15 20:42 | 0.15752 | 12.31760 | 11113 ft | 393 kts | 285° |
| 2026-04-15 20:42 | 0.16437 | 12.29128 | 10258 ft | 396 kts | 284° |
| 2026-04-15 20:43 | 0.17027 | 12.26426 | 9928 ft | 386 kts | 280° |
| 2026-04-15 20:43 | 0.17542 | 12.23864 | 10641 ft | 357 kts | 278° |
| 2026-04-15 20:43 | 0.18047 | 12.19907 | 11055 ft | 347 kts | 274° |
| 2026-04-15 20:43 | 0.18453 | 12.17424 | 10518 ft | 362 kts | 283° |
| 2026-04-15 20:44 | 0.18745 | 12.14956 | 10581 ft | 345 kts | 271° |
| 2026-04-15 20:44 | 0.18844 | 12.12632 | 10733 ft | 313 kts | 270° |
| 2026-04-15 20:44 | 0.18777 | 12.10533 | 10888 ft | 292 kts | 266° |
| 2026-04-15 20:44 | 0.18352 | 12.08813 | 11886 ft | 215 kts | 176° |